sensor_id;sensor_type;location;lat;lon;timestamp;temperature;humidity
34201;DHT22;20469;55.638;37.670;2023-08-06T00:01:16;23.60;99.90
34201;DHT22;20469;55.638;37.670;2023-08-06T00:03:43;23.70;99.90
34201;DHT22;20469;55.638;37.670;2023-08-06T00:06:10;23.60;99.90
34201;DHT22;20469;55.638;37.670;2023-08-06T00:08:38;23.60;99.90
34201;DHT22;20469;55.638;37.670;2023-08-06T00:11:05;23.40;99.90
34201;DHT22;20469;55.638;37.670;2023-08-06T00:13:32;23.30;99.90
34201;DHT22;20469;55.638;37.670;2023-08-06T00:16:12;23.30;99.90
34201;DHT22;20469;55.638;37.670;2023-08-06T00:18:40;23.30;99.90
34201;DHT22;20469;55.638;37.670;2023-08-06T00:21:08;23.30;99.90
34201;DHT22;20469;55.638;37.670;2023-08-06T00:23:35;23.20;99.90
34201;DHT22;20469;55.638;37.670;2023-08-06T00:26:03;23.10;99.90
34201;DHT22;20469;55.638;37.670;2023-08-06T00:28:30;22.90;99.90
34201;DHT22;20469;55.638;37.670;2023-08-06T00:30:57;22.80;99.90
34201;DHT22;20469;55.638;37.670;2023-08-06T00:33:24;22.60;99.90
34201;DHT22;20469;55.638;37.670;2023-08-06T00:35:52;22.50;99.90
34201;DHT22;20469;55.638;37.670;2023-08-06T00:38:19;22.40;99.90
34201;DHT22;20469;55.638;37.670;2023-08-06T00:40:46;22.30;99.90
34201;DHT22;20469;55.638;37.670;2023-08-06T00:43:14;22.40;99.90
34201;DHT22;20469;55.638;37.670;2023-08-06T00:45:41;22.40;99.90
34201;DHT22;20469;55.638;37.670;2023-08-06T00:48:09;22.40;99.90
34201;DHT22;20469;55.638;37.670;2023-08-06T00:50:36;22.40;99.90
34201;DHT22;20469;55.638;37.670;2023-08-06T00:53:03;22.40;99.90
34201;DHT22;20469;55.638;37.670;2023-08-06T00:55:30;22.30;99.90
34201;DHT22;20469;55.638;37.670;2023-08-06T00:57:58;22.40;99.90
34201;DHT22;20469;55.638;37.670;2023-08-06T01:00:26;22.40;99.90
34201;DHT22;20469;55.638;37.670;2023-08-06T01:02:54;22.30;99.90
34201;DHT22;20469;55.638;37.670;2023-08-06T01:05:22;22.30;99.90
34201;DHT22;20469;55.638;37.670;2023-08-06T01:15:55;21.90;99.90
34201;DHT22;20469;55.638;37.670;2023-08-06T01:18:28;21.90;99.90
34201;DHT22;20469;55.638;37.670;2023-08-06T01:21:00;21.80;99.90
34201;DHT22;20469;55.638;37.670;2023-08-06T01:23:27;21.70;99.90
34201;DHT22;20469;55.638;37.670;2023-08-06T01:28:59;21.70;99.90
34201;DHT22;20469;55.638;37.670;2023-08-06T01:31:32;21.60;99.90
34201;DHT22;20469;55.638;37.670;2023-08-06T01:34:05;21.60;99.90
34201;DHT22;20469;55.638;37.670;2023-08-06T01:36:33;21.50;99.90
34201;DHT22;20469;55.638;37.670;2023-08-06T01:39:00;21.50;99.90
34201;DHT22;20469;55.638;37.670;2023-08-06T01:41:28;21.60;99.90
34201;DHT22;20469;55.638;37.670;2023-08-06T01:43:55;21.50;99.90
34201;DHT22;20469;55.638;37.670;2023-08-06T01:46:22;21.50;99.90
34201;DHT22;20469;55.638;37.670;2023-08-06T01:48:50;21.50;99.90
34201;DHT22;20469;55.638;37.670;2023-08-06T01:51:18;21.40;99.90
34201;DHT22;20469;55.638;37.670;2023-08-06T01:53:45;21.40;99.90
34201;DHT22;20469;55.638;37.670;2023-08-06T01:56:12;21.50;99.90
34201;DHT22;20469;55.638;37.670;2023-08-06T01:58:39;21.40;99.90
34201;DHT22;20469;55.638;37.670;2023-08-06T02:01:10;21.50;99.90
34201;DHT22;20469;55.638;37.670;2023-08-06T02:03:37;21.50;99.90
34201;DHT22;20469;55.638;37.670;2023-08-06T02:06:04;21.50;99.90
34201;DHT22;20469;55.638;37.670;2023-08-06T02:08:31;21.50;99.90
34201;DHT22;20469;55.638;37.670;2023-08-06T02:10:59;21.60;99.90
34201;DHT22;20469;55.638;37.670;2023-08-06T02:13:27;21.80;99.90
34201;DHT22;20469;55.638;37.670;2023-08-06T02:15:54;21.70;99.90
34201;DHT22;20469;55.638;37.670;2023-08-06T02:18:21;21.80;99.90
34201;DHT22;20469;55.638;37.670;2023-08-06T02:20:58;22.00;99.90
34201;DHT22;20469;55.638;37.670;2023-08-06T02:23:26;21.90;99.90
34201;DHT22;20469;55.638;37.670;2023-08-06T02:26:04;21.90;99.90
34201;DHT22;20469;55.638;37.670;2023-08-06T02:28:32;21.90;99.90
34201;DHT22;20469;55.638;37.670;2023-08-06T02:30:59;21.90;99.90
34201;DHT22;20469;55.638;37.670;2023-08-06T02:33:27;21.90;99.90
34201;DHT22;20469;55.638;37.670;2023-08-06T02:36:02;22.00;99.90
34201;DHT22;20469;55.638;37.670;2023-08-06T02:38:31;22.10;99.90
34201;DHT22;20469;55.638;37.670;2023-08-06T02:40:59;22.10;99.90
34201;DHT22;20469;55.638;37.670;2023-08-06T02:43:29;22.10;99.90
34201;DHT22;20469;55.638;37.670;2023-08-06T02:46:00;22.20;99.90
34201;DHT22;20469;55.638;37.670;2023-08-06T02:48:28;22.10;99.90
34201;DHT22;20469;55.638;37.670;2023-08-06T02:50:59;22.00;99.90
34201;DHT22;20469;55.638;37.670;2023-08-06T02:53:26;22.20;99.90
34201;DHT22;20469;55.638;37.670;2023-08-06T02:55:54;22.30;99.90
34201;DHT22;20469;55.638;37.670;2023-08-06T02:58:22;22.40;99.90
34201;DHT22;20469;55.638;37.670;2023-08-06T03:01:02;22.40;99.90
34201;DHT22;20469;55.638;37.670;2023-08-06T03:03:31;22.40;99.90
34201;DHT22;20469;55.638;37.670;2023-08-06T03:05:59;22.30;99.90
34201;DHT22;20469;55.638;37.670;2023-08-06T03:08:26;22.30;99.90
34201;DHT22;20469;55.638;37.670;2023-08-06T03:10:54;22.40;99.90
34201;DHT22;20469;55.638;37.670;2023-08-06T03:13:21;22.60;99.90
34201;DHT22;20469;55.638;37.670;2023-08-06T03:16:06;22.50;99.90
34201;DHT22;20469;55.638;37.670;2023-08-06T03:18:33;22.30;99.90
34201;DHT22;20469;55.638;37.670;2023-08-06T03:21:01;22.30;99.90
34201;DHT22;20469;55.638;37.670;2023-08-06T03:23:28;22.40;99.90
34201;DHT22;20469;55.638;37.670;2023-08-06T03:25:55;22.60;99.90
34201;DHT22;20469;55.638;37.670;2023-08-06T03:28:23;22.50;99.90
34201;DHT22;20469;55.638;37.670;2023-08-06T03:30:59;22.50;99.90
34201;DHT22;20469;55.638;37.670;2023-08-06T03:33:27;22.50;99.90
34201;DHT22;20469;55.638;37.670;2023-08-06T03:35:54;22.70;99.90
34201;DHT22;20469;55.638;37.670;2023-08-06T03:38:22;22.60;99.90
34201;DHT22;20469;55.638;37.670;2023-08-06T03:40:50;22.70;99.90
34201;DHT22;20469;55.638;37.670;2023-08-06T03:43:17;22.80;99.90
34201;DHT22;20469;55.638;37.670;2023-08-06T03:45:44;22.80;99.90
34201;DHT22;20469;55.638;37.670;2023-08-06T03:48:11;22.80;99.90
34201;DHT22;20469;55.638;37.670;2023-08-06T03:50:39;23.00;99.90
34201;DHT22;20469;55.638;37.670;2023-08-06T03:53:06;23.20;99.90
34201;DHT22;20469;55.638;37.670;2023-08-06T03:55:33;23.10;99.90
34201;DHT22;20469;55.638;37.670;2023-08-06T03:58:00;23.20;99.90
34201;DHT22;20469;55.638;37.670;2023-08-06T04:00:28;23.30;99.90
34201;DHT22;20469;55.638;37.670;2023-08-06T04:02:55;23.30;99.90
34201;DHT22;20469;55.638;37.670;2023-08-06T04:05:22;23.40;99.90
34201;DHT22;20469;55.638;37.670;2023-08-06T04:07:49;23.50;99.90
34201;DHT22;20469;55.638;37.670;2023-08-06T04:10:17;23.60;99.90
34201;DHT22;20469;55.638;37.670;2023-08-06T04:12:46;24.00;99.90
34201;DHT22;20469;55.638;37.670;2023-08-06T04:15:13;24.10;99.90
34201;DHT22;20469;55.638;37.670;2023-08-06T04:17:40;24.30;99.90
34201;DHT22;20469;55.638;37.670;2023-08-06T04:20:08;24.20;99.90
34201;DHT22;20469;55.638;37.670;2023-08-06T04:22:36;24.40;99.90
34201;DHT22;20469;55.638;37.670;2023-08-06T04:25:03;24.30;99.90
34201;DHT22;20469;55.638;37.670;2023-08-06T04:27:31;24.60;99.90
34201;DHT22;20469;55.638;37.670;2023-08-06T04:29:58;24.60;99.90
34201;DHT22;20469;55.638;37.670;2023-08-06T04:32:25;24.60;99.90
34201;DHT22;20469;55.638;37.670;2023-08-06T04:34:55;24.60;99.90
34201;DHT22;20469;55.638;37.670;2023-08-06T04:37:23;24.70;99.90
34201;DHT22;20469;55.638;37.670;2023-08-06T04:39:50;24.90;99.90
34201;DHT22;20469;55.638;37.670;2023-08-06T04:42:17;24.70;99.90
34201;DHT22;20469;55.638;37.670;2023-08-06T04:44:45;24.70;99.90
34201;DHT22;20469;55.638;37.670;2023-08-06T04:47:12;24.70;99.90
34201;DHT22;20469;55.638;37.670;2023-08-06T04:49:41;24.80;99.90
34201;DHT22;20469;55.638;37.670;2023-08-06T04:52:09;24.80;99.90
34201;DHT22;20469;55.638;37.670;2023-08-06T04:54:36;25.00;99.90
34201;DHT22;20469;55.638;37.670;2023-08-06T04:57:04;25.00;99.90
34201;DHT22;20469;55.638;37.670;2023-08-06T04:59:31;25.10;99.90
34201;DHT22;20469;55.638;37.670;2023-08-06T05:01:58;25.10;99.90
34201;DHT22;20469;55.638;37.670;2023-08-06T05:04:25;25.00;99.90
34201;DHT22;20469;55.638;37.670;2023-08-06T05:06:53;25.00;99.90
34201;DHT22;20469;55.638;37.670;2023-08-06T05:09:20;25.10;99.90
34201;DHT22;20469;55.638;37.670;2023-08-06T05:11:47;25.30;99.90
34201;DHT22;20469;55.638;37.670;2023-08-06T05:14:15;25.30;99.90
34201;DHT22;20469;55.638;37.670;2023-08-06T05:16:42;25.30;99.90
34201;DHT22;20469;55.638;37.670;2023-08-06T05:19:09;25.60;99.90
34201;DHT22;20469;55.638;37.670;2023-08-06T05:21:36;25.60;99.90
34201;DHT22;20469;55.638;37.670;2023-08-06T05:24:04;25.60;99.90
34201;DHT22;20469;55.638;37.670;2023-08-06T05:26:31;25.80;99.90
34201;DHT22;20469;55.638;37.670;2023-08-06T05:28:58;25.80;99.90
34201;DHT22;20469;55.638;37.670;2023-08-06T05:31:25;25.90;99.90
34201;DHT22;20469;55.638;37.670;2023-08-06T05:33:53;25.80;99.90
34201;DHT22;20469;55.638;37.670;2023-08-06T05:36:20;25.90;99.90
34201;DHT22;20469;55.638;37.670;2023-08-06T05:38:48;26.20;99.90
34201;DHT22;20469;55.638;37.670;2023-08-06T05:41:15;26.60;99.90
34201;DHT22;20469;55.638;37.670;2023-08-06T05:43:42;26.80;99.90
34201;DHT22;20469;55.638;37.670;2023-08-06T05:46:09;27.00;99.90
34201;DHT22;20469;55.638;37.670;2023-08-06T05:48:37;26.60;99.90
34201;DHT22;20469;55.638;37.670;2023-08-06T05:51:04;26.30;99.90
34201;DHT22;20469;55.638;37.670;2023-08-06T05:53:31;26.80;99.90
34201;DHT22;20469;55.638;37.670;2023-08-06T05:55:59;27.00;99.90
34201;DHT22;20469;55.638;37.670;2023-08-06T05:58:26;27.10;99.90
34201;DHT22;20469;55.638;37.670;2023-08-06T06:00:56;27.10;99.90
34201;DHT22;20469;55.638;37.670;2023-08-06T06:03:24;27.10;99.90
34201;DHT22;20469;55.638;37.670;2023-08-06T06:05:51;27.30;99.90
34201;DHT22;20469;55.638;37.670;2023-08-06T06:08:18;27.50;99.90
34201;DHT22;20469;55.638;37.670;2023-08-06T06:10:45;27.50;99.90
34201;DHT22;20469;55.638;37.670;2023-08-06T06:13:13;27.60;99.90
34201;DHT22;20469;55.638;37.670;2023-08-06T06:15:40;27.90;99.90
34201;DHT22;20469;55.638;37.670;2023-08-06T06:18:07;28.00;99.90
34201;DHT22;20469;55.638;37.670;2023-08-06T06:20:35;28.00;99.90
34201;DHT22;20469;55.638;37.670;2023-08-06T06:23:02;27.90;99.90
34201;DHT22;20469;55.638;37.670;2023-08-06T06:25:29;28.00;99.90
34201;DHT22;20469;55.638;37.670;2023-08-06T06:27:56;27.80;99.90
34201;DHT22;20469;55.638;37.670;2023-08-06T06:30:23;28.00;99.90
34201;DHT22;20469;55.638;37.670;2023-08-06T06:32:51;28.00;99.90
34201;DHT22;20469;55.638;37.670;2023-08-06T06:35:18;28.10;99.90
34201;DHT22;20469;55.638;37.670;2023-08-06T06:37:46;28.00;99.90
34201;DHT22;20469;55.638;37.670;2023-08-06T06:40:13;28.20;99.90
34201;DHT22;20469;55.638;37.670;2023-08-06T06:42:40;28.10;99.90
34201;DHT22;20469;55.638;37.670;2023-08-06T06:45:08;28.20;99.90
34201;DHT22;20469;55.638;37.670;2023-08-06T06:47:36;28.50;99.90
34201;DHT22;20469;55.638;37.670;2023-08-06T06:50:03;28.50;99.90
34201;DHT22;20469;55.638;37.670;2023-08-06T06:52:31;28.50;99.90
34201;DHT22;20469;55.638;37.670;2023-08-06T06:54:58;28.40;99.90
34201;DHT22;20469;55.638;37.670;2023-08-06T06:57:26;28.50;99.90
34201;DHT22;20469;55.638;37.670;2023-08-06T06:59:53;29.00;99.90
34201;DHT22;20469;55.638;37.670;2023-08-06T07:02:21;28.90;99.50
34201;DHT22;20469;55.638;37.670;2023-08-06T07:04:49;29.00;98.40
34201;DHT22;20469;55.638;37.670;2023-08-06T07:07:17;29.20;94.00
34201;DHT22;20469;55.638;37.670;2023-08-06T07:09:44;29.20;88.30
34201;DHT22;20469;55.638;37.670;2023-08-06T07:12:12;29.00;81.80
34201;DHT22;20469;55.638;37.670;2023-08-06T07:14:39;29.20;81.10
34201;DHT22;20469;55.638;37.670;2023-08-06T07:17:07;29.50;74.70
34201;DHT22;20469;55.638;37.670;2023-08-06T07:19:34;29.70;66.80
34201;DHT22;20469;55.638;37.670;2023-08-06T07:22:01;29.80;59.10
34201;DHT22;20469;55.638;37.670;2023-08-06T07:24:29;29.80;50.80
34201;DHT22;20469;55.638;37.670;2023-08-06T07:26:56;30.10;53.40
34201;DHT22;20469;55.638;37.670;2023-08-06T07:29:23;30.20;39.10
34201;DHT22;20469;55.638;37.670;2023-08-06T07:31:51;30.10;34.80
34201;DHT22;20469;55.638;37.670;2023-08-06T07:34:18;29.50;33.10
34201;DHT22;20469;55.638;37.670;2023-08-06T07:36:46;29.80;34.70
34201;DHT22;20469;55.638;37.670;2023-08-06T07:39:13;30.10;34.50
34201;DHT22;20469;55.638;37.670;2023-08-06T07:41:42;30.10;29.90
34201;DHT22;20469;55.638;37.670;2023-08-06T07:44:09;30.00;30.70
34201;DHT22;20469;55.638;37.670;2023-08-06T07:46:36;30.20;27.10
34201;DHT22;20469;55.638;37.670;2023-08-06T07:49:05;30.30;28.40
34201;DHT22;20469;55.638;37.670;2023-08-06T07:51:32;30.20;20.50
34201;DHT22;20469;55.638;37.670;2023-08-06T07:53:59;30.50;18.70
34201;DHT22;20469;55.638;37.670;2023-08-06T07:56:26;30.20;10.40
34201;DHT22;20469;55.638;37.670;2023-08-06T07:58:54;29.90;10.60
34201;DHT22;20469;55.638;37.670;2023-08-06T08:01:21;30.20;13.90
34201;DHT22;20469;55.638;37.670;2023-08-06T08:03:48;30.30;11.70
34201;DHT22;20469;55.638;37.670;2023-08-06T08:06:16;30.50;13.00
34201;DHT22;20469;55.638;37.670;2023-08-06T08:08:43;30.70;7.40
34201;DHT22;20469;55.638;37.670;2023-08-06T08:11:10;31.20;4.40
34201;DHT22;20469;55.638;37.670;2023-08-06T08:13:38;30.90;7.30
34201;DHT22;20469;55.638;37.670;2023-08-06T08:16:05;30.70;3.40
34201;DHT22;20469;55.638;37.670;2023-08-06T08:18:32;30.70;1.00
34201;DHT22;20469;55.638;37.670;2023-08-06T08:20:59;30.40;1.00
34201;DHT22;20469;55.638;37.670;2023-08-06T08:23:27;31.40;1.00
34201;DHT22;20469;55.638;37.670;2023-08-06T08:25:54;31.90;1.00
34201;DHT22;20469;55.638;37.670;2023-08-06T08:28:21;31.00;1.00
34201;DHT22;20469;55.638;37.670;2023-08-06T08:30:49;30.50;1.00
34201;DHT22;20469;55.638;37.670;2023-08-06T08:33:16;30.80;1.00
34201;DHT22;20469;55.638;37.670;2023-08-06T08:35:46;30.60;1.00
34201;DHT22;20469;55.638;37.670;2023-08-06T08:38:14;31.10;1.00
34201;DHT22;20469;55.638;37.670;2023-08-06T08:40:46;31.40;1.00
34201;DHT22;20469;55.638;37.670;2023-08-06T08:43:16;31.30;1.00
34201;DHT22;20469;55.638;37.670;2023-08-06T08:45:50;31.10;1.00
34201;DHT22;20469;55.638;37.670;2023-08-06T08:48:18;31.10;1.00
34201;DHT22;20469;55.638;37.670;2023-08-06T08:50:49;32.00;1.00
34201;DHT22;20469;55.638;37.670;2023-08-06T08:53:17;32.20;1.00
34201;DHT22;20469;55.638;37.670;2023-08-06T08:55:47;31.70;1.00
34201;DHT22;20469;55.638;37.670;2023-08-06T08:58:15;32.00;1.00
34201;DHT22;20469;55.638;37.670;2023-08-06T09:00:43;31.40;1.00
34201;DHT22;20469;55.638;37.670;2023-08-06T09:03:16;31.40;1.00
34201;DHT22;20469;55.638;37.670;2023-08-06T09:05:45;31.30;1.00
34201;DHT22;20469;55.638;37.670;2023-08-06T09:08:18;31.90;1.00
34201;DHT22;20469;55.638;37.670;2023-08-06T09:10:48;31.30;1.00
34201;DHT22;20469;55.638;37.670;2023-08-06T09:13:16;31.50;1.00
34201;DHT22;20469;55.638;37.670;2023-08-06T09:15:44;31.60;1.00
34201;DHT22;20469;55.638;37.670;2023-08-06T09:18:12;32.50;1.00
34201;DHT22;20469;55.638;37.670;2023-08-06T09:20:39;33.30;1.00
34201;DHT22;20469;55.638;37.670;2023-08-06T09:23:10;34.50;1.00
34201;DHT22;20469;55.638;37.670;2023-08-06T09:25:39;33.30;1.00
34201;DHT22;20469;55.638;37.670;2023-08-06T09:28:07;33.50;1.00
34201;DHT22;20469;55.638;37.670;2023-08-06T09:30:36;33.90;1.00
34201;DHT22;20469;55.638;37.670;2023-08-06T09:33:08;35.60;1.00
34201;DHT22;20469;55.638;37.670;2023-08-06T09:35:37;35.20;1.00
34201;DHT22;20469;55.638;37.670;2023-08-06T09:38:08;35.60;1.00
34201;DHT22;20469;55.638;37.670;2023-08-06T09:40:38;36.20;1.00
34201;DHT22;20469;55.638;37.670;2023-08-06T09:43:06;37.10;1.00
34201;DHT22;20469;55.638;37.670;2023-08-06T09:45:37;34.90;1.00
34201;DHT22;20469;55.638;37.670;2023-08-06T09:48:07;34.40;1.00
34201;DHT22;20469;55.638;37.670;2023-08-06T09:50:36;35.50;1.00
34201;DHT22;20469;55.638;37.670;2023-08-06T09:53:05;34.90;1.00
34201;DHT22;20469;55.638;37.670;2023-08-06T09:55:34;34.60;1.00
34201;DHT22;20469;55.638;37.670;2023-08-06T09:58:01;35.20;1.00
34201;DHT22;20469;55.638;37.670;2023-08-06T10:00:31;35.70;1.00
34201;DHT22;20469;55.638;37.670;2023-08-06T10:03:04;33.90;1.00
34201;DHT22;20469;55.638;37.670;2023-08-06T10:05:33;34.30;1.00
34201;DHT22;20469;55.638;37.670;2023-08-06T10:08:02;35.10;1.00
34201;DHT22;20469;55.638;37.670;2023-08-06T10:10:31;37.00;1.00
34201;DHT22;20469;55.638;37.670;2023-08-06T10:12:59;35.40;1.00
34201;DHT22;20469;55.638;37.670;2023-08-06T10:15:30;36.90;1.00
34201;DHT22;20469;55.638;37.670;2023-08-06T10:17:59;34.90;1.00
34201;DHT22;20469;55.638;37.670;2023-08-06T10:20:33;34.70;1.00
34201;DHT22;20469;55.638;37.670;2023-08-06T10:23:06;34.50;1.00
34201;DHT22;20469;55.638;37.670;2023-08-06T10:25:41;35.10;1.00
34201;DHT22;20469;55.638;37.670;2023-08-06T10:28:12;35.90;1.00
34201;DHT22;20469;55.638;37.670;2023-08-06T10:30:46;36.10;1.00
34201;DHT22;20469;55.638;37.670;2023-08-06T10:33:14;36.30;1.00
34201;DHT22;20469;55.638;37.670;2023-08-06T10:35:45;36.80;1.00
34201;DHT22;20469;55.638;37.670;2023-08-06T10:38:21;37.80;1.00
34201;DHT22;20469;55.638;37.670;2023-08-06T10:41:02;37.70;1.00
34201;DHT22;20469;55.638;37.670;2023-08-06T10:46:02;36.80;1.00
34201;DHT22;20469;55.638;37.670;2023-08-06T10:48:35;35.90;1.00
34201;DHT22;20469;55.638;37.670;2023-08-06T10:51:06;33.90;1.00
34201;DHT22;20469;55.638;37.670;2023-08-06T10:53:34;33.60;1.00
34201;DHT22;20469;55.638;37.670;2023-08-06T10:56:02;34.90;1.00
34201;DHT22;20469;55.638;37.670;2023-08-06T10:58:38;34.20;1.00
34201;DHT22;20469;55.638;37.670;2023-08-06T11:01:06;35.30;1.00
34201;DHT22;20469;55.638;37.670;2023-08-06T11:03:33;35.80;1.00
34201;DHT22;20469;55.638;37.670;2023-08-06T11:06:01;36.00;1.00
34201;DHT22;20469;55.638;37.670;2023-08-06T11:08:34;35.20;1.00
34201;DHT22;20469;55.638;37.670;2023-08-06T11:11:11;33.80;1.00
34201;DHT22;20469;55.638;37.670;2023-08-06T11:13:41;33.50;1.00
34201;DHT22;20469;55.638;37.670;2023-08-06T11:16:09;32.40;1.00
34201;DHT22;20469;55.638;37.670;2023-08-06T11:18:37;33.50;1.00
34201;DHT22;20469;55.638;37.670;2023-08-06T11:21:04;34.50;1.00
34201;DHT22;20469;55.638;37.670;2023-08-06T11:23:32;36.10;1.00
34201;DHT22;20469;55.638;37.670;2023-08-06T11:25:59;36.80;1.00
34201;DHT22;20469;55.638;37.670;2023-08-06T11:28:27;36.80;1.00
34201;DHT22;20469;55.638;37.670;2023-08-06T11:30:54;35.70;1.00
34201;DHT22;20469;55.638;37.670;2023-08-06T11:33:24;34.90;1.00
34201;DHT22;20469;55.638;37.670;2023-08-06T11:35:56;35.00;1.00
34201;DHT22;20469;55.638;37.670;2023-08-06T11:38:34;35.00;1.00
34201;DHT22;20469;55.638;37.670;2023-08-06T11:41:01;34.40;1.00
34201;DHT22;20469;55.638;37.670;2023-08-06T11:43:30;35.00;1.00
34201;DHT22;20469;55.638;37.670;2023-08-06T11:45:58;36.20;1.00
34201;DHT22;20469;55.638;37.670;2023-08-06T11:48:27;34.90;1.00
34201;DHT22;20469;55.638;37.670;2023-08-06T11:50:54;34.00;1.00
34201;DHT22;20469;55.638;37.670;2023-08-06T11:53:27;33.90;1.00
34201;DHT22;20469;55.638;37.670;2023-08-06T11:55:55;33.90;1.00
34201;DHT22;20469;55.638;37.670;2023-08-06T11:58:22;34.40;1.00
34201;DHT22;20469;55.638;37.670;2023-08-06T12:00:49;33.20;1.00
34201;DHT22;20469;55.638;37.670;2023-08-06T12:03:19;32.40;1.00
34201;DHT22;20469;55.638;37.670;2023-08-06T12:05:46;33.10;1.00
34201;DHT22;20469;55.638;37.670;2023-08-06T12:08:14;33.80;1.00
34201;DHT22;20469;55.638;37.670;2023-08-06T12:10:41;34.70;1.00
34201;DHT22;20469;55.638;37.670;2023-08-06T12:13:08;35.10;1.00
34201;DHT22;20469;55.638;37.670;2023-08-06T12:15:36;34.00;1.00
34201;DHT22;20469;55.638;37.670;2023-08-06T12:18:03;33.10;1.00
34201;DHT22;20469;55.638;37.670;2023-08-06T12:20:30;32.90;1.00
34201;DHT22;20469;55.638;37.670;2023-08-06T12:22:58;33.40;1.00
34201;DHT22;20469;55.638;37.670;2023-08-06T12:25:25;33.30;1.00
34201;DHT22;20469;55.638;37.670;2023-08-06T12:27:52;34.00;1.00
34201;DHT22;20469;55.638;37.670;2023-08-06T12:30:19;33.60;1.00
34201;DHT22;20469;55.638;37.670;2023-08-06T12:32:47;34.70;1.00
34201;DHT22;20469;55.638;37.670;2023-08-06T12:35:14;34.00;1.00
34201;DHT22;20469;55.638;37.670;2023-08-06T12:37:42;34.10;1.00
34201;DHT22;20469;55.638;37.670;2023-08-06T12:40:11;33.80;1.00
34201;DHT22;20469;55.638;37.670;2023-08-06T12:42:58;34.50;1.00
34201;DHT22;20469;55.638;37.670;2023-08-06T12:45:26;33.10;1.00
34201;DHT22;20469;55.638;37.670;2023-08-06T12:47:53;34.00;1.00
34201;DHT22;20469;55.638;37.670;2023-08-06T12:50:20;33.80;1.00
34201;DHT22;20469;55.638;37.670;2023-08-06T12:52:48;34.10;1.00
34201;DHT22;20469;55.638;37.670;2023-08-06T12:55:15;32.80;1.00
34201;DHT22;20469;55.638;37.670;2023-08-06T12:57:42;32.90;1.00
34201;DHT22;20469;55.638;37.670;2023-08-06T13:00:26;32.20;1.00
34201;DHT22;20469;55.638;37.670;2023-08-06T13:02:53;34.90;1.00
34201;DHT22;20469;55.638;37.670;2023-08-06T13:05:21;34.20;1.00
34201;DHT22;20469;55.638;37.670;2023-08-06T13:07:48;35.20;1.00
34201;DHT22;20469;55.638;37.670;2023-08-06T13:10:15;36.30;1.00
34201;DHT22;20469;55.638;37.670;2023-08-06T13:12:43;36.60;1.00
34201;DHT22;20469;55.638;37.670;2023-08-06T13:15:11;34.20;1.00
34201;DHT22;20469;55.638;37.670;2023-08-06T13:17:38;32.20;1.00
34201;DHT22;20469;55.638;37.670;2023-08-06T13:20:06;33.60;1.00
34201;DHT22;20469;55.638;37.670;2023-08-06T13:22:33;34.40;1.00
34201;DHT22;20469;55.638;37.670;2023-08-06T13:25:00;34.20;1.00
34201;DHT22;20469;55.638;37.670;2023-08-06T13:27:29;34.30;1.00
34201;DHT22;20469;55.638;37.670;2023-08-06T13:29:57;35.10;1.00
34201;DHT22;20469;55.638;37.670;2023-08-06T13:32:24;34.00;1.00
34201;DHT22;20469;55.638;37.670;2023-08-06T13:34:51;34.60;1.00
34201;DHT22;20469;55.638;37.670;2023-08-06T13:37:18;34.60;1.00
34201;DHT22;20469;55.638;37.670;2023-08-06T13:39:46;33.80;1.00
34201;DHT22;20469;55.638;37.670;2023-08-06T13:42:13;33.40;1.00
34201;DHT22;20469;55.638;37.670;2023-08-06T13:44:40;32.80;1.00
34201;DHT22;20469;55.638;37.670;2023-08-06T13:47:07;33.70;1.00
34201;DHT22;20469;55.638;37.670;2023-08-06T13:49:35;33.00;1.00
34201;DHT22;20469;55.638;37.670;2023-08-06T13:52:02;34.00;1.00
34201;DHT22;20469;55.638;37.670;2023-08-06T13:54:47;32.50;1.00
34201;DHT22;20469;55.638;37.670;2023-08-06T13:57:14;32.60;1.00
34201;DHT22;20469;55.638;37.670;2023-08-06T13:59:45;33.00;1.00
34201;DHT22;20469;55.638;37.670;2023-08-06T14:02:12;33.10;1.00
34201;DHT22;20469;55.638;37.670;2023-08-06T14:04:39;34.20;1.00
34201;DHT22;20469;55.638;37.670;2023-08-06T14:07:07;34.60;1.00
34201;DHT22;20469;55.638;37.670;2023-08-06T14:09:35;34.90;1.00
34201;DHT22;20469;55.638;37.670;2023-08-06T14:12:02;34.40;1.00
34201;DHT22;20469;55.638;37.670;2023-08-06T14:14:30;34.90;1.00
34201;DHT22;20469;55.638;37.670;2023-08-06T14:16:57;34.70;1.00
34201;DHT22;20469;55.638;37.670;2023-08-06T14:19:25;34.20;1.00
34201;DHT22;20469;55.638;37.670;2023-08-06T14:21:52;32.90;1.00
34201;DHT22;20469;55.638;37.670;2023-08-06T14:24:20;32.80;1.00
34201;DHT22;20469;55.638;37.670;2023-08-06T14:26:48;33.10;1.00
34201;DHT22;20469;55.638;37.670;2023-08-06T14:29:15;33.10;1.00
34201;DHT22;20469;55.638;37.670;2023-08-06T14:31:42;32.30;1.00
34201;DHT22;20469;55.638;37.670;2023-08-06T14:34:10;33.10;1.00
34201;DHT22;20469;55.638;37.670;2023-08-06T14:36:38;32.80;1.00
34201;DHT22;20469;55.638;37.670;2023-08-06T14:39:05;33.00;1.00
34201;DHT22;20469;55.638;37.670;2023-08-06T14:41:32;31.40;1.00
34201;DHT22;20469;55.638;37.670;2023-08-06T14:43:59;31.10;1.00
34201;DHT22;20469;55.638;37.670;2023-08-06T14:46:27;31.10;1.00
34201;DHT22;20469;55.638;37.670;2023-08-06T14:48:54;31.10;1.00
34201;DHT22;20469;55.638;37.670;2023-08-06T14:51:21;30.60;1.00
34201;DHT22;20469;55.638;37.670;2023-08-06T14:53:50;30.90;1.00
34201;DHT22;20469;55.638;37.670;2023-08-06T14:56:17;30.90;1.00
34201;DHT22;20469;55.638;37.670;2023-08-06T14:58:45;30.60;1.00
34201;DHT22;20469;55.638;37.670;2023-08-06T15:01:12;30.80;1.00
34201;DHT22;20469;55.638;37.670;2023-08-06T15:03:40;30.70;1.00
34201;DHT22;20469;55.638;37.670;2023-08-06T15:06:07;30.70;1.00
34201;DHT22;20469;55.638;37.670;2023-08-06T15:08:34;30.50;1.00
34201;DHT22;20469;55.638;37.670;2023-08-06T15:11:02;30.40;1.00
34201;DHT22;20469;55.638;37.670;2023-08-06T15:13:30;30.30;1.00
34201;DHT22;20469;55.638;37.670;2023-08-06T15:15:57;30.30;1.00
34201;DHT22;20469;55.638;37.670;2023-08-06T15:18:24;30.40;1.00
34201;DHT22;20469;55.638;37.670;2023-08-06T15:20:51;30.40;1.00
34201;DHT22;20469;55.638;37.670;2023-08-06T15:23:19;30.30;1.00
34201;DHT22;20469;55.638;37.670;2023-08-06T15:25:46;30.30;1.00
34201;DHT22;20469;55.638;37.670;2023-08-06T15:28:14;30.20;1.00
34201;DHT22;20469;55.638;37.670;2023-08-06T15:30:49;30.20;1.00
34201;DHT22;20469;55.638;37.670;2023-08-06T15:33:18;30.10;1.00
34201;DHT22;20469;55.638;37.670;2023-08-06T15:35:45;30.10;1.00
34201;DHT22;20469;55.638;37.670;2023-08-06T15:38:13;30.00;1.00
34201;DHT22;20469;55.638;37.670;2023-08-06T15:40:40;30.00;1.00
34201;DHT22;20469;55.638;37.670;2023-08-06T15:43:08;29.90;1.00